sensor_id;sensor_type;location;lat;lon;timestamp;P1;durP1;ratioP1;P2;durP2;ratioP2
7471;SDS011;3777;48.722;8.110;2023-05-07T00:00:48;5.40;;;4.90;;
7471;SDS011;3777;48.722;8.110;2023-05-07T00:03:16;6.10;;;4.80;;
7471;SDS011;3777;48.722;8.110;2023-05-07T00:05:44;7.40;;;5.10;;
7471;SDS011;3777;48.722;8.110;2023-05-07T00:08:11;5.10;;;4.60;;
7471;SDS011;3777;48.722;8.110;2023-05-07T00:10:38;5.67;;;5.07;;
7471;SDS011;3777;48.722;8.110;2023-05-07T00:13:05;5.00;;;4.50;;
7471;SDS011;3777;48.722;8.110;2023-05-07T00:15:33;5.90;;;4.67;;
7471;SDS011;3777;48.722;8.110;2023-05-07T00:18:00;7.60;;;5.03;;
7471;SDS011;3777;48.722;8.110;2023-05-07T00:20:27;6.63;;;5.07;;
7471;SDS011;3777;48.722;8.110;2023-05-07T00:22:54;5.50;;;5.00;;
7471;SDS011;3777;48.722;8.110;2023-05-07T00:25:21;6.53;;;5.10;;
7471;SDS011;3777;48.722;8.110;2023-05-07T00:27:48;5.53;;;5.00;;
7471;SDS011;3777;48.722;8.110;2023-05-07T00:30:15;5.50;;;4.97;;
7471;SDS011;3777;48.722;8.110;2023-05-07T00:32:44;5.90;;;5.30;;
7471;SDS011;3777;48.722;8.110;2023-05-07T00:35:11;7.23;;;5.20;;
7471;SDS011;3777;48.722;8.110;2023-05-07T00:37:38;7.77;;;4.57;;
7471;SDS011;3777;48.722;8.110;2023-05-07T00:40:06;7.33;;;4.87;;
7471;SDS011;3777;48.722;8.110;2023-05-07T00:42:33;5.37;;;4.87;;
7471;SDS011;3777;48.722;8.110;2023-05-07T00:45:00;7.37;;;4.97;;
7471;SDS011;3777;48.722;8.110;2023-05-07T00:47:27;6.10;;;4.87;;
7471;SDS011;3777;48.722;8.110;2023-05-07T00:49:56;5.47;;;4.90;;
7471;SDS011;3777;48.722;8.110;2023-05-07T00:52:25;5.93;;;4.90;;
7471;SDS011;3777;48.722;8.110;2023-05-07T00:54:52;5.90;;;5.20;;
7471;SDS011;3777;48.722;8.110;2023-05-07T00:57:20;6.83;;;5.53;;
7471;SDS011;3777;48.722;8.110;2023-05-07T00:59:48;6.17;;;5.17;;
7471;SDS011;3777;48.722;8.110;2023-05-07T01:02:15;7.97;;;5.10;;
7471;SDS011;3777;48.722;8.110;2023-05-07T01:04:42;6.83;;;5.27;;
7471;SDS011;3777;48.722;8.110;2023-05-07T01:07:11;5.90;;;5.30;;
7471;SDS011;3777;48.722;8.110;2023-05-07T01:09:38;5.80;;;5.30;;
7471;SDS011;3777;48.722;8.110;2023-05-07T01:12:06;5.63;;;5.13;;
7471;SDS011;3777;48.722;8.110;2023-05-07T01:14:34;7.37;;;5.70;;
7471;SDS011;3777;48.722;8.110;2023-05-07T01:17:01;6.17;;;5.67;;
7471;SDS011;3777;48.722;8.110;2023-05-07T01:19:29;5.70;;;5.20;;
7471;SDS011;3777;48.722;8.110;2023-05-07T01:22:00;5.77;;;5.27;;
7471;SDS011;3777;48.722;8.110;2023-05-07T01:24:31;5.93;;;5.33;;
7471;SDS011;3777;48.722;8.110;2023-05-07T01:26:59;5.63;;;5.13;;
7471;SDS011;3777;48.722;8.110;2023-05-07T01:29:26;5.23;;;4.83;;
7471;SDS011;3777;48.722;8.110;2023-05-07T01:31:53;5.87;;;5.27;;
7471;SDS011;3777;48.722;8.110;2023-05-07T01:34:22;5.97;;;5.40;;
7471;SDS011;3777;48.722;8.110;2023-05-07T01:36:50;6.13;;;5.53;;
7471;SDS011;3777;48.722;8.110;2023-05-07T01:39:18;6.13;;;5.30;;
7471;SDS011;3777;48.722;8.110;2023-05-07T01:41:47;7.03;;;5.53;;
7471;SDS011;3777;48.722;8.110;2023-05-07T01:44:15;6.17;;;5.47;;
7471;SDS011;3777;48.722;8.110;2023-05-07T01:46:44;6.13;;;5.57;;
7471;SDS011;3777;48.722;8.110;2023-05-07T01:49:12;5.53;;;5.03;;
7471;SDS011;3777;48.722;8.110;2023-05-07T01:51:39;6.20;;;4.97;;
7471;SDS011;3777;48.722;8.110;2023-05-07T01:54:06;6.57;;;5.97;;
7471;SDS011;3777;48.722;8.110;2023-05-07T01:56:33;6.67;;;5.07;;
7471;SDS011;3777;48.722;8.110;2023-05-07T01:59:01;7.80;;;6.00;;
7471;SDS011;3777;48.722;8.110;2023-05-07T02:01:28;6.67;;;6.10;;
7471;SDS011;3777;48.722;8.110;2023-05-07T02:03:56;7.00;;;6.30;;
7471;SDS011;3777;48.722;8.110;2023-05-07T02:06:22;6.70;;;6.10;;
7471;SDS011;3777;48.722;8.110;2023-05-07T02:08:49;7.13;;;5.70;;
7471;SDS011;3777;48.722;8.110;2023-05-07T02:11:16;7.27;;;6.40;;
7471;SDS011;3777;48.722;8.110;2023-05-07T02:13:43;6.43;;;5.83;;
7471;SDS011;3777;48.722;8.110;2023-05-07T02:16:11;7.77;;;5.90;;
7471;SDS011;3777;48.722;8.110;2023-05-07T02:18:39;8.13;;;6.97;;
7471;SDS011;3777;48.722;8.110;2023-05-07T02:21:06;7.37;;;6.60;;
7471;SDS011;3777;48.722;8.110;2023-05-07T02:23:33;6.60;;;6.10;;
7471;SDS011;3777;48.722;8.110;2023-05-07T02:26:00;6.83;;;6.20;;
7471;SDS011;3777;48.722;8.110;2023-05-07T02:28:27;6.50;;;5.90;;
7471;SDS011;3777;48.722;8.110;2023-05-07T02:30:54;6.30;;;5.70;;
7471;SDS011;3777;48.722;8.110;2023-05-07T02:33:22;6.20;;;5.57;;
7471;SDS011;3777;48.722;8.110;2023-05-07T02:35:49;8.13;;;6.10;;
7471;SDS011;3777;48.722;8.110;2023-05-07T02:38:17;6.40;;;5.80;;
7471;SDS011;3777;48.722;8.110;2023-05-07T02:40:43;7.53;;;5.80;;
7471;SDS011;3777;48.722;8.110;2023-05-07T02:43:10;8.80;;;5.00;;
7471;SDS011;3777;48.722;8.110;2023-05-07T02:45:37;8.33;;;5.20;;
7471;SDS011;3777;48.722;8.110;2023-05-07T02:48:05;6.27;;;5.40;;
7471;SDS011;3777;48.722;8.110;2023-05-07T02:50:33;5.33;;;4.83;;
7471;SDS011;3777;48.722;8.110;2023-05-07T02:53:00;5.80;;;5.13;;
7471;SDS011;3777;48.722;8.110;2023-05-07T02:55:27;7.43;;;4.87;;
7471;SDS011;3777;48.722;8.110;2023-05-07T02:57:54;5.80;;;5.03;;
7471;SDS011;3777;48.722;8.110;2023-05-07T03:00:21;5.37;;;4.87;;
7471;SDS011;3777;48.722;8.110;2023-05-07T03:02:48;5.23;;;4.73;;
7471;SDS011;3777;48.722;8.110;2023-05-07T03:05:15;6.73;;;5.70;;
7471;SDS011;3777;48.722;8.110;2023-05-07T03:07:44;6.33;;;5.60;;
7471;SDS011;3777;48.722;8.110;2023-05-07T03:10:12;5.73;;;5.23;;
7471;SDS011;3777;48.722;8.110;2023-05-07T03:12:39;6.23;;;5.60;;
7471;SDS011;3777;48.722;8.110;2023-05-07T03:15:06;6.77;;;5.40;;
7471;SDS011;3777;48.722;8.110;2023-05-07T03:17:35;6.30;;;5.70;;
7471;SDS011;3777;48.722;8.110;2023-05-07T03:20:02;6.03;;;5.53;;
7471;SDS011;3777;48.722;8.110;2023-05-07T03:22:30;5.70;;;5.20;;
7471;SDS011;3777;48.722;8.110;2023-05-07T03:24:58;9.53;;;5.57;;
7471;SDS011;3777;48.722;8.110;2023-05-07T03:27:25;6.77;;;5.13;;
7471;SDS011;3777;48.722;8.110;2023-05-07T03:29:52;6.60;;;6.00;;
7471;SDS011;3777;48.722;8.110;2023-05-07T03:32:19;6.00;;;5.40;;
7471;SDS011;3777;48.722;8.110;2023-05-07T03:34:46;5.37;;;4.97;;
7471;SDS011;3777;48.722;8.110;2023-05-07T03:37:13;6.87;;;6.17;;
7471;SDS011;3777;48.722;8.110;2023-05-07T03:39:40;5.83;;;5.13;;
7471;SDS011;3777;48.722;8.110;2023-05-07T03:42:08;6.63;;;5.87;;
7471;SDS011;3777;48.722;8.110;2023-05-07T03:44:35;7.33;;;5.50;;
7471;SDS011;3777;48.722;8.110;2023-05-07T03:47:02;6.33;;;5.73;;
7471;SDS011;3777;48.722;8.110;2023-05-07T03:49:29;6.40;;;5.80;;
7471;SDS011;3777;48.722;8.110;2023-05-07T03:51:56;6.93;;;5.30;;
7471;SDS011;3777;48.722;8.110;2023-05-07T03:54:23;6.07;;;5.47;;
7471;SDS011;3777;48.722;8.110;2023-05-07T03:56:50;6.93;;;5.27;;
7471;SDS011;3777;48.722;8.110;2023-05-07T03:59:18;5.90;;;5.40;;
7471;SDS011;3777;48.722;8.110;2023-05-07T04:01:45;6.30;;;5.40;;
7471;SDS011;3777;48.722;8.110;2023-05-07T04:04:12;5.63;;;5.07;;
7471;SDS011;3777;48.722;8.110;2023-05-07T04:06:39;5.80;;;5.20;;
7471;SDS011;3777;48.722;8.110;2023-05-07T04:09:06;6.00;;;5.20;;
7471;SDS011;3777;48.722;8.110;2023-05-07T04:11:33;5.47;;;5.00;;
7471;SDS011;3777;48.722;8.110;2023-05-07T04:14:00;6.30;;;4.87;;
7471;SDS011;3777;48.722;8.110;2023-05-07T04:16:29;7.03;;;5.27;;
7471;SDS011;3777;48.722;8.110;2023-05-07T04:18:56;6.87;;;5.90;;
7471;SDS011;3777;48.722;8.110;2023-05-07T04:21:23;6.63;;;5.07;;
7471;SDS011;3777;48.722;8.110;2023-05-07T04:23:51;5.73;;;5.13;;
7471;SDS011;3777;48.722;8.110;2023-05-07T04:26:18;9.03;;;5.70;;
7471;SDS011;3777;48.722;8.110;2023-05-07T04:28:46;6.03;;;4.73;;
7471;SDS011;3777;48.722;8.110;2023-05-07T04:31:13;5.67;;;5.17;;
7471;SDS011;3777;48.722;8.110;2023-05-07T04:33:41;5.40;;;4.93;;
7471;SDS011;3777;48.722;8.110;2023-05-07T04:36:08;5.37;;;4.87;;
7471;SDS011;3777;48.722;8.110;2023-05-07T04:38:36;5.63;;;5.00;;
7471;SDS011;3777;48.722;8.110;2023-05-07T04:41:04;5.37;;;4.90;;
7471;SDS011;3777;48.722;8.110;2023-05-07T04:43:32;5.77;;;4.70;;
7471;SDS011;3777;48.722;8.110;2023-05-07T04:45:59;4.97;;;4.57;;
7471;SDS011;3777;48.722;8.110;2023-05-07T04:48:26;5.50;;;4.93;;
7471;SDS011;3777;48.722;8.110;2023-05-07T04:50:55;5.40;;;4.90;;
7471;SDS011;3777;48.722;8.110;2023-05-07T04:53:22;5.60;;;5.10;;
7471;SDS011;3777;48.722;8.110;2023-05-07T04:55:54;5.17;;;4.67;;
7471;SDS011;3777;48.722;8.110;2023-05-07T04:58:22;5.07;;;4.53;;
7471;SDS011;3777;48.722;8.110;2023-05-07T05:00:49;5.43;;;4.90;;
7471;SDS011;3777;48.722;8.110;2023-05-07T05:03:15;5.07;;;4.57;;
7471;SDS011;3777;48.722;8.110;2023-05-07T05:05:43;4.77;;;4.37;;
7471;SDS011;3777;48.722;8.110;2023-05-07T05:08:11;4.93;;;4.53;;
7471;SDS011;3777;48.722;8.110;2023-05-07T05:10:38;4.93;;;4.43;;
7471;SDS011;3777;48.722;8.110;2023-05-07T05:13:06;9.80;;;5.37;;
7471;SDS011;3777;48.722;8.110;2023-05-07T05:15:34;5.27;;;4.77;;
7471;SDS011;3777;48.722;8.110;2023-05-07T05:18:01;5.23;;;4.70;;
7471;SDS011;3777;48.722;8.110;2023-05-07T05:20:28;5.60;;;5.10;;
7471;SDS011;3777;48.722;8.110;2023-05-07T05:22:55;7.30;;;5.90;;
7471;SDS011;3777;48.722;8.110;2023-05-07T05:25:23;5.67;;;5.17;;
7471;SDS011;3777;48.722;8.110;2023-05-07T05:27:50;6.63;;;6.00;;
7471;SDS011;3777;48.722;8.110;2023-05-07T05:30:17;7.40;;;5.83;;
7471;SDS011;3777;48.722;8.110;2023-05-07T05:32:44;6.33;;;5.70;;
7471;SDS011;3777;48.722;8.110;2023-05-07T05:35:11;6.63;;;5.93;;
7471;SDS011;3777;48.722;8.110;2023-05-07T05:37:38;8.63;;;6.60;;
7471;SDS011;3777;48.722;8.110;2023-05-07T05:40:06;7.27;;;6.50;;
7471;SDS011;3777;48.722;8.110;2023-05-07T05:42:35;7.73;;;6.47;;
7471;SDS011;3777;48.722;8.110;2023-05-07T05:45:02;9.30;;;7.20;;
7471;SDS011;3777;48.722;8.110;2023-05-07T05:47:29;7.80;;;7.00;;
7471;SDS011;3777;48.722;8.110;2023-05-07T05:49:56;7.70;;;7.00;;
7471;SDS011;3777;48.722;8.110;2023-05-07T05:52:23;7.50;;;6.80;;
7471;SDS011;3777;48.722;8.110;2023-05-07T05:54:50;7.57;;;6.77;;
7471;SDS011;3777;48.722;8.110;2023-05-07T05:57:17;6.50;;;5.90;;
7471;SDS011;3777;48.722;8.110;2023-05-07T05:59:45;6.60;;;6.00;;
7471;SDS011;3777;48.722;8.110;2023-05-07T06:02:13;7.23;;;5.17;;
7471;SDS011;3777;48.722;8.110;2023-05-07T06:04:40;5.40;;;4.90;;
7471;SDS011;3777;48.722;8.110;2023-05-07T06:07:07;5.38;;;4.35;;
7471;SDS011;3777;48.722;8.110;2023-05-07T06:09:34;4.88;;;4.38;;
7471;SDS011;3777;48.722;8.110;2023-05-07T06:12:01;4.30;;;3.90;;
7471;SDS011;3777;48.722;8.110;2023-05-07T06:14:28;6.88;;;5.57;;
7471;SDS011;3777;48.722;8.110;2023-05-07T06:16:57;6.22;;;5.63;;
7471;SDS011;3777;48.722;8.110;2023-05-07T06:19:24;5.32;;;4.82;;
7471;SDS011;3777;48.722;8.110;2023-05-07T06:21:51;6.38;;;4.90;;
7471;SDS011;3777;48.722;8.110;2023-05-07T06:24:18;5.18;;;4.28;;
7471;SDS011;3777;48.722;8.110;2023-05-07T06:26:45;4.18;;;3.75;;
7471;SDS011;3777;48.722;8.110;2023-05-07T06:29:12;4.75;;;4.20;;
7471;SDS011;3777;48.722;8.110;2023-05-07T06:31:39;4.28;;;3.88;;
7471;SDS011;3777;48.722;8.110;2023-05-07T06:34:08;3.60;;;3.30;;
7471;SDS011;3777;48.722;8.110;2023-05-07T06:36:35;5.15;;;4.13;;
7471;SDS011;3777;48.722;8.110;2023-05-07T06:39:02;6.95;;;4.10;;
7471;SDS011;3777;48.722;8.110;2023-05-07T06:41:29;5.65;;;4.63;;
7471;SDS011;3777;48.722;8.110;2023-05-07T06:43:55;5.05;;;4.50;;
7471;SDS011;3777;48.722;8.110;2023-05-07T06:46:22;5.93;;;5.32;;
7471;SDS011;3777;48.722;8.110;2023-05-07T06:48:50;5.15;;;4.63;;
7471;SDS011;3777;48.722;8.110;2023-05-07T06:51:18;5.70;;;5.18;;
7471;SDS011;3777;48.722;8.110;2023-05-07T06:53:45;7.13;;;5.63;;
7471;SDS011;3777;48.722;8.110;2023-05-07T06:56:12;6.70;;;4.90;;
7471;SDS011;3777;48.722;8.110;2023-05-07T06:58:39;5.35;;;4.95;;
7471;SDS011;3777;48.722;8.110;2023-05-07T07:01:06;5.88;;;4.85;;
7471;SDS011;3777;48.722;8.110;2023-05-07T07:03:33;5.82;;;5.22;;
7471;SDS011;3777;48.722;8.110;2023-05-07T07:06:00;6.18;;;5.57;;
7471;SDS011;3777;48.722;8.110;2023-05-07T07:08:29;6.28;;;5.40;;
7471;SDS011;3777;48.722;8.110;2023-05-07T07:10:57;6.53;;;5.57;;
7471;SDS011;3777;48.722;8.110;2023-05-07T07:13:23;4.90;;;4.50;;
7471;SDS011;3777;48.722;8.110;2023-05-07T07:15:51;6.95;;;5.35;;
7471;SDS011;3777;48.722;8.110;2023-05-07T07:18:18;5.75;;;5.25;;
7471;SDS011;3777;48.722;8.110;2023-05-07T07:20:45;6.32;;;5.72;;
7471;SDS011;3777;48.722;8.110;2023-05-07T07:23:12;6.18;;;5.45;;
7471;SDS011;3777;48.722;8.110;2023-05-07T07:25:40;5.60;;;5.10;;
7471;SDS011;3777;48.722;8.110;2023-05-07T07:28:07;5.78;;;5.28;;
7471;SDS011;3777;48.722;8.110;2023-05-07T07:30:35;5.93;;;4.25;;
7471;SDS011;3777;48.722;8.110;2023-05-07T07:33:02;5.63;;;5.07;;
7471;SDS011;3777;48.722;8.110;2023-05-07T07:35:30;6.38;;;5.60;;
7471;SDS011;3777;48.722;8.110;2023-05-07T07:37:57;6.53;;;5.00;;
7471;SDS011;3777;48.722;8.110;2023-05-07T07:40:24;6.07;;;5.03;;
7471;SDS011;3777;48.722;8.110;2023-05-07T07:42:53;5.90;;;5.40;;
7471;SDS011;3777;48.722;8.110;2023-05-07T07:45:20;5.65;;;5.05;;
7471;SDS011;3777;48.722;8.110;2023-05-07T07:47:47;6.40;;;5.53;;
7471;SDS011;3777;48.722;8.110;2023-05-07T07:50:14;7.32;;;5.65;;
7471;SDS011;3777;48.722;8.110;2023-05-07T07:52:41;7.85;;;5.30;;
7471;SDS011;3777;48.722;8.110;2023-05-07T07:55:08;5.07;;;4.25;;
7471;SDS011;3777;48.722;8.110;2023-05-07T07:57:35;5.28;;;4.88;;
7471;SDS011;3777;48.722;8.110;2023-05-07T08:00:04;5.10;;;4.60;;
7471;SDS011;3777;48.722;8.110;2023-05-07T08:02:33;9.20;;;5.82;;
7471;SDS011;3777;48.722;8.110;2023-05-07T08:04:59;5.53;;;4.65;;
7471;SDS011;3777;48.722;8.110;2023-05-07T08:07:26;4.90;;;4.25;;
7471;SDS011;3777;48.722;8.110;2023-05-07T08:09:53;6.60;;;3.83;;
7471;SDS011;3777;48.722;8.110;2023-05-07T08:12:20;5.03;;;4.60;;
7471;SDS011;3777;48.722;8.110;2023-05-07T08:14:47;4.65;;;3.92;;
7471;SDS011;3777;48.722;8.110;2023-05-07T08:17:16;4.90;;;4.40;;
7471;SDS011;3777;48.722;8.110;2023-05-07T08:19:43;6.38;;;4.45;;
7471;SDS011;3777;48.722;8.110;2023-05-07T08:22:10;5.15;;;4.60;;
7471;SDS011;3777;48.722;8.110;2023-05-07T08:24:37;5.05;;;4.65;;
7471;SDS011;3777;48.722;8.110;2023-05-07T08:27:03;7.15;;;4.63;;
7471;SDS011;3777;48.722;8.110;2023-05-07T08:29:30;5.22;;;4.63;;
7471;SDS011;3777;48.722;8.110;2023-05-07T08:31:57;4.88;;;4.45;;
7471;SDS011;3777;48.722;8.110;2023-05-07T08:34:26;4.50;;;3.95;;
7471;SDS011;3777;48.722;8.110;2023-05-07T08:36:53;4.05;;;3.75;;
7471;SDS011;3777;48.722;8.110;2023-05-07T08:39:20;5.53;;;4.50;;
7471;SDS011;3777;48.722;8.110;2023-05-07T08:41:47;5.45;;;4.53;;
7471;SDS011;3777;48.722;8.110;2023-05-07T08:44:18;4.45;;;3.80;;
7471;SDS011;3777;48.722;8.110;2023-05-07T08:46:48;5.55;;;4.53;;
7471;SDS011;3777;48.722;8.110;2023-05-07T08:49:19;5.70;;;4.95;;
7471;SDS011;3777;48.722;8.110;2023-05-07T08:51:48;6.03;;;4.45;;
7471;SDS011;3777;48.722;8.110;2023-05-07T08:54:15;6.75;;;5.20;;
7471;SDS011;3777;48.722;8.110;2023-05-07T08:56:43;6.32;;;4.20;;
7471;SDS011;3777;48.722;8.110;2023-05-07T08:59:10;5.55;;;4.53;;
7471;SDS011;3777;48.722;8.110;2023-05-07T09:01:37;5.00;;;4.43;;
7471;SDS011;3777;48.722;8.110;2023-05-07T09:04:04;4.70;;;3.70;;
7471;SDS011;3777;48.722;8.110;2023-05-07T09:06:32;4.95;;;4.45;;
7471;SDS011;3777;48.722;8.110;2023-05-07T09:09:00;5.00;;;4.60;;
7471;SDS011;3777;48.722;8.110;2023-05-07T09:11:28;6.47;;;4.43;;
7471;SDS011;3777;48.722;8.110;2023-05-07T09:13:55;4.65;;;4.25;;
7471;SDS011;3777;48.722;8.110;2023-05-07T09:16:25;6.68;;;4.95;;
7471;SDS011;3777;48.722;8.110;2023-05-07T09:18:52;4.18;;;3.08;;
7471;SDS011;3777;48.722;8.110;2023-05-07T09:21:20;4.35;;;3.95;;
7471;SDS011;3777;48.722;8.110;2023-05-07T09:23:51;4.30;;;3.60;;
7471;SDS011;3777;48.722;8.110;2023-05-07T09:26:22;4.70;;;4.03;;
7471;SDS011;3777;48.722;8.110;2023-05-07T09:28:49;5.30;;;4.22;;
7471;SDS011;3777;48.722;8.110;2023-05-07T09:31:16;6.40;;;4.15;;
7471;SDS011;3777;48.722;8.110;2023-05-07T09:33:43;5.28;;;4.85;;
7471;SDS011;3777;48.722;8.110;2023-05-07T09:36:10;3.75;;;3.30;;
7471;SDS011;3777;48.722;8.110;2023-05-07T09:38:38;4.18;;;3.42;;
7471;SDS011;3777;48.722;8.110;2023-05-07T09:41:06;4.75;;;4.22;;
7471;SDS011;3777;48.722;8.110;2023-05-07T09:43:35;4.68;;;4.03;;
7471;SDS011;3777;48.722;8.110;2023-05-07T09:46:06;4.78;;;4.22;;
7471;SDS011;3777;48.722;8.110;2023-05-07T09:48:38;3.45;;;3.15;;
7471;SDS011;3777;48.722;8.110;2023-05-07T09:51:08;4.30;;;3.90;;
7471;SDS011;3777;48.722;8.110;2023-05-07T09:53:44;4.57;;;4.10;;
7471;SDS011;3777;48.722;8.110;2023-05-07T09:56:13;4.53;;;3.80;;
7471;SDS011;3777;48.722;8.110;2023-05-07T09:58:42;3.22;;;2.88;;
7471;SDS011;3777;48.722;8.110;2023-05-07T10:01:11;3.95;;;3.65;;
7471;SDS011;3777;48.722;8.110;2023-05-07T10:03:39;3.63;;;3.22;;
7471;SDS011;3777;48.722;8.110;2023-05-07T10:06:08;4.63;;;4.05;;
7471;SDS011;3777;48.722;8.110;2023-05-07T10:08:36;5.15;;;2.80;;
7471;SDS011;3777;48.722;8.110;2023-05-07T10:11:03;4.22;;;3.72;;
7471;SDS011;3777;48.722;8.110;2023-05-07T10:13:31;4.78;;;4.28;;
7471;SDS011;3777;48.722;8.110;2023-05-07T10:16:02;6.05;;;3.85;;
7471;SDS011;3777;48.722;8.110;2023-05-07T10:18:30;5.38;;;4.13;;
7471;SDS011;3777;48.722;8.110;2023-05-07T10:21:00;3.35;;;3.05;;
7471;SDS011;3777;48.722;8.110;2023-05-07T10:23:29;3.88;;;3.47;;
7471;SDS011;3777;48.722;8.110;2023-05-07T10:25:58;3.90;;;3.00;;
7471;SDS011;3777;48.722;8.110;2023-05-07T10:28:25;5.65;;;3.22;;
7471;SDS011;3777;48.722;8.110;2023-05-07T10:30:58;5.60;;;3.85;;
7471;SDS011;3777;48.722;8.110;2023-05-07T10:33:34;3.55;;;3.00;;
7471;SDS011;3777;48.722;8.110;2023-05-07T10:36:03;5.53;;;4.57;;
7471;SDS011;3777;48.722;8.110;2023-05-07T10:38:32;3.97;;;3.28;;
7471;SDS011;3777;48.722;8.110;2023-05-07T10:41:00;6.32;;;4.13;;
7471;SDS011;3777;48.722;8.110;2023-05-07T10:43:38;6.03;;;4.70;;
7471;SDS011;3777;48.722;8.110;2023-05-07T10:46:11;5.30;;;4.88;;
7471;SDS011;3777;48.722;8.110;2023-05-07T10:51:33;5.13;;;4.63;;
7471;SDS011;3777;48.722;8.110;2023-05-07T10:56:47;7.03;;;6.32;;
7471;SDS011;3777;48.722;8.110;2023-05-07T10:59:31;6.18;;;4.85;;
7471;SDS011;3777;48.722;8.110;2023-05-07T11:02:08;5.68;;;5.05;;
7471;SDS011;3777;48.722;8.110;2023-05-07T11:04:36;3.40;;;3.10;;
7471;SDS011;3777;48.722;8.110;2023-05-07T11:07:21;7.40;;;3.38;;
7471;SDS011;3777;48.722;8.110;2023-05-07T11:09:55;6.28;;;4.30;;
7471;SDS011;3777;48.722;8.110;2023-05-07T11:12:50;5.97;;;3.90;;
7471;SDS011;3777;48.722;8.110;2023-05-07T11:18:16;4.65;;;4.22;;
7471;SDS011;3777;48.722;8.110;2023-05-07T11:20:45;3.95;;;3.63;;
7471;SDS011;3777;48.722;8.110;2023-05-07T11:26:25;4.80;;;4.18;;
7471;SDS011;3777;48.722;8.110;2023-05-07T11:28:52;4.90;;;4.40;;
7471;SDS011;3777;48.722;8.110;2023-05-07T11:31:20;4.75;;;4.05;;
7471;SDS011;3777;48.722;8.110;2023-05-07T11:33:51;5.13;;;4.43;;
7471;SDS011;3777;48.722;8.110;2023-05-07T11:36:18;4.47;;;4.07;;
7471;SDS011;3777;48.722;8.110;2023-05-07T11:38:46;6.25;;;4.70;;
7471;SDS011;3777;48.722;8.110;2023-05-07T11:41:15;4.28;;;3.80;;
7471;SDS011;3777;48.722;8.110;2023-05-07T11:43:54;5.97;;;5.00;;
7471;SDS011;3777;48.722;8.110;2023-05-07T11:46:22;4.22;;;3.80;;
7471;SDS011;3777;48.722;8.110;2023-05-07T11:48:49;4.13;;;3.72;;
7471;SDS011;3777;48.722;8.110;2023-05-07T11:51:20;7.03;;;5.00;;
7471;SDS011;3777;48.722;8.110;2023-05-07T11:53:48;4.90;;;3.92;;
7471;SDS011;3777;48.722;8.110;2023-05-07T11:56:16;5.28;;;4.07;;
7471;SDS011;3777;48.722;8.110;2023-05-07T11:58:45;5.45;;;4.15;;
7471;SDS011;3777;48.722;8.110;2023-05-07T12:01:13;5.85;;;4.03;;
7471;SDS011;3777;48.722;8.110;2023-05-07T12:03:41;5.03;;;4.53;;
7471;SDS011;3777;48.722;8.110;2023-05-07T12:06:12;5.57;;;5.00;;
7471;SDS011;3777;48.722;8.110;2023-05-07T12:08:40;4.78;;;3.42;;
7471;SDS011;3777;48.722;8.110;2023-05-07T12:11:09;7.10;;;4.47;;
7471;SDS011;3777;48.722;8.110;2023-05-07T12:13:38;4.28;;;3.95;;
7471;SDS011;3777;48.722;8.110;2023-05-07T12:16:05;4.63;;;4.13;;
7471;SDS011;3777;48.722;8.110;2023-05-07T12:18:33;4.13;;;3.50;;
7471;SDS011;3777;48.722;8.110;2023-05-07T12:21:02;4.28;;;3.88;;
7471;SDS011;3777;48.722;8.110;2023-05-07T12:23:32;3.70;;;3.30;;
7471;SDS011;3777;48.722;8.110;2023-05-07T12:26:00;5.22;;;3.30;;
7471;SDS011;3777;48.722;8.110;2023-05-07T12:28:27;6.82;;;3.70;;
7471;SDS011;3777;48.722;8.110;2023-05-07T12:30:55;5.65;;;3.60;;
7471;SDS011;3777;48.722;8.110;2023-05-07T12:33:24;5.28;;;4.28;;
7471;SDS011;3777;48.722;8.110;2023-05-07T12:35:54;4.35;;;3.90;;
7471;SDS011;3777;48.722;8.110;2023-05-07T12:38:21;5.45;;;3.58;;
7471;SDS011;3777;48.722;8.110;2023-05-07T12:40:50;5.95;;;4.65;;
7471;SDS011;3777;48.722;8.110;2023-05-07T12:43:20;6.22;;;4.97;;
7471;SDS011;3777;48.722;8.110;2023-05-07T12:45:48;8.05;;;6.68;;
7471;SDS011;3777;48.722;8.110;2023-05-07T12:48:16;6.47;;;5.88;;
7471;SDS011;3777;48.722;8.110;2023-05-07T12:50:45;8.23;;;6.18;;
7471;SDS011;3777;48.722;8.110;2023-05-07T12:53:15;8.45;;;6.47;;
7471;SDS011;3777;48.722;8.110;2023-05-07T12:55:42;5.88;;;5.13;;
7471;SDS011;3777;48.722;8.110;2023-05-07T12:58:15;7.03;;;5.63;;
7471;SDS011;3777;48.722;8.110;2023-05-07T13:00:43;5.80;;;5.07;;
7471;SDS011;3777;48.722;8.110;2023-05-07T13:03:10;8.13;;;4.32;;
7471;SDS011;3777;48.722;8.110;2023-05-07T13:05:37;5.47;;;4.00;;
7471;SDS011;3777;48.722;8.110;2023-05-07T13:08:05;6.88;;;3.45;;
7471;SDS011;3777;48.722;8.110;2023-05-07T13:10:34;3.33;;;2.90;;
7471;SDS011;3777;48.722;8.110;2023-05-07T13:13:01;6.32;;;3.45;;
7471;SDS011;3777;48.722;8.110;2023-05-07T13:15:30;5.03;;;3.72;;
7471;SDS011;3777;48.722;8.110;2023-05-07T13:17:57;3.55;;;3.25;;
7471;SDS011;3777;48.722;8.110;2023-05-07T13:20:24;3.80;;;3.13;;
7471;SDS011;3777;48.722;8.110;2023-05-07T13:22:51;4.82;;;3.60;;
7471;SDS011;3777;48.722;8.110;2023-05-07T13:25:18;4.90;;;3.58;;
7471;SDS011;3777;48.722;8.110;2023-05-07T13:27:45;4.22;;;3.80;;
7471;SDS011;3777;48.722;8.110;2023-05-07T13:30:12;5.43;;;3.58;;
7471;SDS011;3777;48.722;8.110;2023-05-07T13:32:40;3.58;;;2.80;;
7471;SDS011;3777;48.722;8.110;2023-05-07T13:35:07;3.92;;;3.20;;
7471;SDS011;3777;48.722;8.110;2023-05-07T13:37:35;6.05;;;3.10;;
7471;SDS011;3777;48.722;8.110;2023-05-07T13:40:02;4.43;;;4.00;;
7471;SDS011;3777;48.722;8.110;2023-05-07T13:42:29;5.25;;;3.83;;
7471;SDS011;3777;48.722;8.110;2023-05-07T13:44:56;3.67;;;3.00;;
7471;SDS011;3777;48.722;8.110;2023-05-07T13:47:23;5.15;;;3.80;;
7471;SDS011;3777;48.722;8.110;2023-05-07T13:49:52;5.57;;;3.67;;
7471;SDS011;3777;48.722;8.110;2023-05-07T13:52:19;4.57;;;3.88;;
7471;SDS011;3777;48.722;8.110;2023-05-07T13:54:46;5.35;;;4.20;;
7471;SDS011;3777;48.722;8.110;2023-05-07T13:57:13;4.40;;;4.00;;
7471;SDS011;3777;48.722;8.110;2023-05-07T13:59:40;5.68;;;4.60;;
7471;SDS011;3777;48.722;8.110;2023-05-07T14:02:07;5.07;;;4.38;;
7471;SDS011;3777;48.722;8.110;2023-05-07T14:04:34;4.35;;;3.95;;
7471;SDS011;3777;48.722;8.110;2023-05-07T14:07:04;6.43;;;3.90;;
7471;SDS011;3777;48.722;8.110;2023-05-07T14:09:31;4.03;;;3.63;;
7471;SDS011;3777;48.722;8.110;2023-05-07T14:11:58;4.20;;;3.42;;
7471;SDS011;3777;48.722;8.110;2023-05-07T14:14:25;5.25;;;4.75;;
7471;SDS011;3777;48.722;8.110;2023-05-07T14:16:52;4.22;;;3.78;;
7471;SDS011;3777;48.722;8.110;2023-05-07T14:19:19;5.40;;;4.07;;
7471;SDS011;3777;48.722;8.110;2023-05-07T14:21:47;4.28;;;3.40;;
7471;SDS011;3777;48.722;8.110;2023-05-07T14:24:16;4.30;;;3.33;;
7471;SDS011;3777;48.722;8.110;2023-05-07T14:26:42;4.13;;;3.72;;
7471;SDS011;3777;48.722;8.110;2023-05-07T14:29:10;7.68;;;4.22;;
7471;SDS011;3777;48.722;8.110;2023-05-07T14:31:37;5.75;;;4.60;;
7471;SDS011;3777;48.722;8.110;2023-05-07T14:34:04;4.82;;;4.10;;
7471;SDS011;3777;48.722;8.110;2023-05-07T14:36:31;4.63;;;3.50;;
7471;SDS011;3777;48.722;8.110;2023-05-07T14:38:58;5.05;;;4.03;;
7471;SDS011;3777;48.722;8.110;2023-05-07T14:41:26;5.97;;;3.80;;
7471;SDS011;3777;48.722;8.110;2023-05-07T14:43:53;5.80;;;2.88;;
7471;SDS011;3777;48.722;8.110;2023-05-07T14:46:20;3.92;;;2.15;;
7471;SDS011;3777;48.722;8.110;2023-05-07T14:48:50;4.78;;;2.22;;
7471;SDS011;3777;48.722;8.110;2023-05-07T14:51:17;2.20;;;2.00;;
7471;SDS011;3777;48.722;8.110;2023-05-07T14:53:44;3.53;;;2.20;;
7471;SDS011;3777;48.722;8.110;2023-05-07T14:56:11;4.10;;;2.10;;
7471;SDS011;3777;48.722;8.110;2023-05-07T14:58:39;2.53;;;2.20;;
7471;SDS011;3777;48.722;8.110;2023-05-07T15:01:06;4.68;;;2.25;;
7471;SDS011;3777;48.722;8.110;2023-05-07T15:03:40;2.92;;;2.30;;
7471;SDS011;3777;48.722;8.110;2023-05-07T15:06:07;3.38;;;2.60;;
7471;SDS011;3777;48.722;8.110;2023-05-07T15:08:34;3.00;;;2.70;;
7471;SDS011;3777;48.722;8.110;2023-05-07T15:11:01;3.55;;;2.40;;
7471;SDS011;3777;48.722;8.110;2023-05-07T15:13:28;3.72;;;2.58;;
7471;SDS011;3777;48.722;8.110;2023-05-07T15:15:56;2.88;;;2.50;;
7471;SDS011;3777;48.722;8.110;2023-05-07T15:18:23;3.17;;;2.70;;
7471;SDS011;3777;48.722;8.110;2023-05-07T15:20:50;4.90;;;2.60;;
7471;SDS011;3777;48.722;8.110;2023-05-07T15:23:17;3.28;;;2.60;;
7471;SDS011;3777;48.722;8.110;2023-05-07T15:25:44;5.45;;;2.80;;
7471;SDS011;3777;48.722;8.110;2023-05-07T15:28:11;3.30;;;2.85;;
7471;SDS011;3777;48.722;8.110;2023-05-07T15:30:38;3.97;;;2.65;;